Time;durP1;ratioP1;P1;durP2;ratioP2;P2;SDS_P1;SDS_P2;PMS_P1;PMS_P2;Temp;Humidity;BMP_temperature;BMP_pressure;BME280_temperature;BME280_humidity;BME280_pressure;Samples;Min_cycle;Max_cycle;Signal;HPM_P1;HPM_P2
2021/03/28 00:00:07;;;;;;;12.93;3.67;;;4.30;99.90;;;;;;5028160;28;20042;-67
2021/03/28 00:02:48;;;;;;;19.58;4.68;;;4.30;99.90;;;;;;5019896;28;20053;-67
2021/03/28 00:05:23;;;;;;;20.83;4.00;;;4.30;99.90;;;;;;5019874;28;20048;-67
2021/03/28 00:07:50;;;;;;;16.90;3.83;;;4.40;99.90;;;;;;5014083;28;20078;-67
2021/03/28 00:10:26;;;;;;;20.17;4.75;;;4.50;99.90;;;;;;5019291;28;20049;-67
2021/03/28 00:13:02;;;;;;;19.58;4.45;;;4.50;99.90;;;;;;5016963;28;20557;-67
2021/03/28 00:15:35;;;;;;;14.90;3.45;;;4.40;99.90;;;;;;5037295;28;20060;-67
2021/03/28 00:18:09;;;;;;;20.75;4.55;;;4.40;99.90;;;;;;5043208;28;20507;-67
2021/03/28 00:20:38;;;;;;;15.88;4.07;;;4.40;99.90;;;;;;5041550;28;20054;-67
2021/03/28 00:23:06;;;;;;;15.25;4.25;;;4.50;99.90;;;;;;5045208;28;20041;-67
2021/03/28 00:25:32;;;;;;;20.38;4.40;;;4.40;99.90;;;;;;5044376;28;20041;-67
2021/03/28 00:28:00;;;;;;;18.90;4.60;;;4.30;99.90;;;;;;5051511;28;20044;-67
2021/03/28 00:30:40;;;;;;;18.00;3.95;;;4.30;99.90;;;;;;5045396;28;20045;-67
2021/03/28 00:33:09;;;;;;;14.32;4.10;;;4.30;99.90;;;;;;5056314;28;20056;-67
2021/03/28 00:35:57;;;;;;;20.20;4.68;;;4.30;99.90;;;;;;5059770;28;20056;-66
2021/03/28 00:38:30;;;;;;;16.70;4.35;;;4.30;99.90;;;;;;5059809;28;20049;-67
2021/03/28 00:41:20;;;;;;;19.65;4.05;;;4.40;99.90;;;;;;5082685;28;20041;-66
2021/03/28 00:44:11;;;;;;;26.02;4.93;;;4.40;99.90;;;;;;5067998;28;20087;-67
2021/03/28 00:46:50;;;;;;;20.55;4.10;;;4.40;99.90;;;;;;5082543;28;20047;-67
2021/03/28 00:49:34;;;;;;;19.13;4.00;;;4.50;99.90;;;;;;5067347;28;20043;-67
2021/03/28 00:52:05;;;;;;;24.38;6.32;;;4.50;99.90;;;;;;5073550;28;20158;-67
2021/03/28 00:54:52;;;;;;;17.10;4.38;;;4.50;99.90;;;;;;5058246;28;20051;-67
2021/03/28 00:57:28;;;;;;;26.40;5.22;;;4.50;99.90;;;;;;5063834;28;20094;-67
2021/03/28 01:00:15;;;;;;;15.75;4.18;;;4.50;99.90;;;;;;5056333;28;20385;-67
2021/03/28 01:03:08;;;;;;;15.52;3.55;;;4.60;99.90;;;;;;5059759;28;20053;-66
2021/03/28 01:05:45;;;;;;;18.65;4.45;;;4.50;99.90;;;;;;5060443;28;20044;-67
2021/03/28 01:08:40;;;;;;;23.35;4.88;;;4.60;99.90;;;;;;5065283;28;20045;-66
2021/03/28 01:11:31;;;;;;;26.73;4.95;;;4.60;99.90;;;;;;5065245;28;20111;-66
2021/03/28 01:14:17;;;;;;;20.83;4.95;;;4.60;99.90;;;;;;5053163;28;20047;-67
2021/03/28 01:17:07;;;;;;;21.23;5.00;;;4.60;99.90;;;;;;5065353;28;20041;-66
2021/03/28 01:20:00;;;;;;;20.15;4.55;;;4.60;99.90;;;;;;5055127;28;20052;-68
2021/03/28 01:22:31;;;;;;;20.90;4.88;;;4.60;99.90;;;;;;5055202;28;20072;-66
2021/03/28 01:25:35;;;;;;;22.88;5.05;;;4.60;99.90;;;;;;5062655;28;20087;-66
2021/03/28 01:28:22;;;;;;;17.92;5.28;;;4.60;99.90;;;;;;5071121;28;20041;-66
2021/03/28 01:30:55;;;;;;;23.63;5.55;;;4.60;99.90;;;;;;5051803;28;20044;-66
2021/03/28 01:33:28;;;;;;;26.70;5.05;;;4.60;99.90;;;;;;5065684;28;20045;-66
2021/03/28 01:36:01;;;;;;;23.85;6.05;;;4.70;99.90;;;;;;5065512;28;20161;-66
2021/03/28 01:38:31;;;;;;;25.38;5.70;;;4.60;99.90;;;;;;5058803;28;20052;-66
2021/03/28 01:41:02;;;;;;;30.02;5.32;;;4.60;99.90;;;;;;5065053;28;20045;-66
2021/03/28 01:44:07;;;;;;;27.48;6.00;;;4.60;99.90;;;;;;5065629;28;20053;-66
2021/03/28 01:46:54;;;;;;;36.90;7.60;;;4.60;99.90;;;;;;5062807;28;20127;-66
2021/03/28 01:49:50;;;;;;;33.80;6.75;;;4.60;99.90;;;;;;5058771;28;20068;-67
2021/03/28 01:52:22;;;;;;;24.27;8.27;;;4.60;99.90;;;;;;5071138;28;20523;-66
2021/03/28 01:54:47;;;;;;;24.80;6.57;;;4.70;99.90;;;;;;5072582;28;20111;-67
2021/03/28 01:57:22;;;;;;;26.63;6.70;;;4.80;99.90;;;;;;5058164;28;20045;-66
2021/03/28 02:00:08;;;;;;;19.40;5.68;;;4.80;99.90;;;;;;5052252;28;20045;-67
2021/03/28 02:02:53;;;;;;;27.48;6.00;;;4.80;99.90;;;;;;5070945;28;20545;-67
2021/03/28 02:05:33;;;;;;;30.40;5.78;;;4.90;99.90;;;;;;5050802;28;20497;-68
2021/03/28 02:08:12;;;;;;;17.13;6.22;;;4.90;99.90;;;;;;5058312;28;20079;-67
2021/03/28 02:11:00;;;;;;;29.02;6.25;;;5.00;99.90;;;;;;5077468;28;20041;-67
2021/03/28 02:13:56;;;;;;;28.08;5.95;;;5.10;99.90;;;;;;5066027;28;20044;-68
2021/03/28 02:16:32;;;;;;;26.85;6.07;;;5.10;99.90;;;;;;5061114;28;20116;-67
2021/03/28 02:19:19;;;;;;;23.55;5.40;;;5.10;99.90;;;;;;5070384;28;20071;-67
2021/03/28 02:22:03;;;;;;;30.48;5.55;;;5.10;99.90;;;;;;5074091;28;20041;-67
2021/03/28 02:24:38;;;;;;;33.42;6.80;;;5.20;99.90;;;;;;5062921;28;20100;-67
2021/03/28 02:27:17;;;;;;;23.08;6.05;;;5.20;99.90;;;;;;5072681;28;20107;-67
2021/03/28 02:29:59;;;;;;;28.10;5.70;;;5.20;99.90;;;;;;5070462;28;20106;-67
2021/03/28 02:32:34;;;;;;;25.85;6.22;;;5.20;99.90;;;;;;5077948;28;20152;-66
2021/03/28 02:35:17;;;;;;;25.33;6.20;;;5.10;99.90;;;;;;5068748;28;20045;-66
2021/03/28 02:38:12;;;;;;;25.25;6.30;;;5.10;99.90;;;;;;5054641;28;20052;-66
2021/03/28 02:41:01;;;;;;;25.60;5.43;;;5.10;99.90;;;;;;5069315;28;20133;-66
2021/03/28 02:43:33;;;;;;;;;;;5.20;99.90;;;;;;5063534;28;20048;-66
2021/03/28 02:46:25;;;;;;;21.95;6.43;;;5.20;99.90;;;;;;5069401;28;20350;-67
2021/03/28 02:49:15;;;;;;;26.15;5.63;;;5.30;99.90;;;;;;5050493;28;20170;-66
2021/03/28 02:52:09;;;;;;;25.50;5.75;;;5.20;99.90;;;;;;5065426;28;20045;-66
2021/03/28 02:54:56;;;;;;;26.17;4.95;;;5.30;99.90;;;;;;5051383;28;20041;-66
2021/03/28 02:57:49;;;;;;;27.15;6.75;;;5.30;99.90;;;;;;5070831;28;20044;-67
2021/03/28 03:00:30;;;;;;;21.55;5.70;;;5.30;99.90;;;;;;5055334;28;20044;-66
2021/03/28 03:03:30;;;;;;;18.60;5.10;;;5.30;99.90;;;;;;5062223;28;20408;-68
2021/03/28 03:06:08;;;;;;;25.38;6.32;;;5.30;99.90;;;;;;5062987;28;20056;-66
2021/03/28 03:08:37;;;;;;;21.00;4.37;;;5.20;99.90;;;;;;5061755;28;20067;-66
2021/03/28 03:11:30;;;;;;;35.17;7.50;;;5.30;99.90;;;;;;5061497;28;20041;-66
2021/03/28 03:14:33;;;;;;;26.60;6.82;;;5.20;99.90;;;;;;5059038;28;20060;-67
2021/03/28 03:17:30;;;;;;;30.55;7.13;;;5.30;99.90;;;;;;5058913;28;20079;-68
2021/03/28 03:20:22;;;;;;;26.80;6.13;;;5.30;99.90;;;;;;5062231;28;20336;-66
2021/03/28 03:23:21;;;;;;;27.75;6.10;;;5.40;99.90;;;;;;5058852;28;20048;-66
2021/03/28 03:26:05;;;;;;;26.25;5.70;;;5.40;99.90;;;;;;5062087;28;20580;-66
2021/03/28 03:28:40;;;;;;;23.77;5.43;;;5.40;99.90;;;;;;5051415;28;20093;-66
2021/03/28 03:31:29;;;;;;;18.08;5.45;;;5.40;99.90;;;;;;5060339;28;20059;-67
2021/03/28 03:34:10;;;;;;;;;;;5.40;99.90;;;;;;5056154;28;20091;-66
2021/03/28 03:37:16;;;;;;;19.27;5.90;;;5.40;99.90;;;;;;5060022;28;20030;-66
2021/03/28 03:40:10;;;;;;;18.27;4.88;;;5.40;99.90;;;;;;5061920;28;20049;-67
2021/03/28 03:42:48;;;;;;;18.52;4.93;;;5.50;99.90;;;;;;5061228;28;20048;-67
2021/03/28 03:46:00;;;;;;;23.48;5.03;;;5.40;99.90;;;;;;5062325;28;20036;-67
2021/03/28 03:49:04;;;;;;;20.45;5.30;;;5.50;99.90;;;;;;5057260;28;20074;-67
2021/03/28 03:51:48;;;;;;;23.80;5.03;;;5.50;99.90;;;;;;5062454;28;20052;-66
2021/03/28 03:54:33;;;;;;;17.90;6.15;;;5.50;99.90;;;;;;5061658;28;20136;-66
2021/03/28 03:57:01;;;;;;;22.77;4.90;;;5.50;99.90;;;;;;5061288;28;20067;-67
2021/03/28 04:00:05;;;;;;;17.70;5.93;;;5.50;99.90;;;;;;5063908;28;20051;-66
2021/03/28 04:02:46;;;;;;;30.85;5.72;;;5.50;99.90;;;;;;5066024;28;20041;-66
2021/03/28 04:05:28;;;;;;;24.98;5.70;;;5.50;99.90;;;;;;5065085;28;20037;-67
2021/03/28 04:08:13;;;;;;;24.20;5.15;;;5.60;99.90;;;;;;5065250;28;20118;-66
2021/03/28 04:11:05;;;;;;;23.58;5.25;;;5.60;99.90;;;;;;5065352;28;20055;-66
2021/03/28 04:14:08;;;;;;;18.63;5.15;;;5.60;99.90;;;;;;5058701;28;20045;-67
2021/03/28 04:16:44;;;;;;;17.08;4.68;;;5.70;99.90;;;;;;5056065;28;20048;-66
2021/03/28 04:19:31;;;;;;;24.88;5.75;;;5.60;99.90;;;;;;5062903;28;20049;-67
2021/03/28 04:22:24;;;;;;;15.85;5.30;;;5.70;99.90;;;;;;5065953;28;20045;-66
2021/03/28 04:25:28;;;;;;;22.17;5.38;;;5.70;99.90;;;;;;5055608;28;20124;-67
2021/03/28 04:28:25;;;;;;;19.58;5.05;;;5.70;99.90;;;;;;5018643;28;20051;-67
2021/03/28 04:30:57;;;;;;;25.63;5.85;;;5.70;99.90;;;;;;5021369;28;20054;-67
2021/03/28 04:33:52;;;;;;;16.85;5.28;;;5.60;99.90;;;;;;5021975;28;20096;-67
2021/03/28 04:36:21;;;;;;;21.98;5.88;;;5.60;99.90;;;;;;5013886;28;20057;-67
2021/03/28 04:39:12;;;;;;;16.58;5.97;;;5.50;99.90;;;;;;5014944;28;20626;-67
2021/03/28 04:41:44;;;;;;;19.70;5.32;;;5.40;99.90;;;;;;5024022;28;20049;-68
2021/03/28 04:44:42;;;;;;;23.77;6.15;;;5.40;99.90;;;;;;5023409;28;20121;-67
2021/03/28 04:47:45;;;;;;;17.73;5.25;;;5.40;99.90;;;;;;5015893;28;20065;-67
2021/03/28 04:50:53;;;;;;;18.05;5.35;;;5.40;99.90;;;;;;5023466;28;20081;-67
2021/03/28 04:53:56;;;;;;;19.95;6.10;;;5.40;99.90;;;;;;5022994;28;20641;-66
2021/03/28 04:56:37;;;;;;;23.48;5.63;;;5.30;99.90;;;;;;5008683;28;20058;-67
2021/03/28 04:59:20;;;;;;;22.42;5.72;;;5.30;99.90;;;;;;5015450;28;20158;-67
2021/03/28 05:01:55;;;;;;;27.13;6.95;;;5.30;99.90;;;;;;5021446;28;20062;-66
2021/03/28 05:04:55;;;;;;;35.95;8.73;;;5.20;99.90;;;;;;5059337;28;20122;-67
2021/03/28 05:07:45;;;;;;;24.80;5.93;;;5.20;99.90;;;;;;5062995;28;20037;-67
2021/03/28 05:10:22;;;;;;;23.77;5.82;;;5.20;99.90;;;;;;5063811;28;20037;-67
2021/03/28 05:13:34;;;;;;;29.40;6.30;;;5.20;99.90;;;;;;5053269;28;20056;-67
2021/03/28 05:16:09;;;;;;;24.48;5.88;;;5.10;99.90;;;;;;5064474;28;20151;-67
2021/03/28 05:19:07;;;;;;;23.13;6.30;;;5.10;99.90;;;;;;5064422;28;20049;-67
2021/03/28 05:21:55;;;;;;;28.10;6.00;;;5.10;99.90;;;;;;5064640;28;20069;-66
2021/03/28 05:24:34;;;;;;;25.65;5.82;;;5.10;99.90;;;;;;5055141;28;20049;-66
2021/03/28 05:27:18;;;;;;;30.40;6.78;;;5.10;99.90;;;;;;5053603;28;20041;-66
2021/03/28 05:30:13;;;;;;;19.70;4.78;;;5.10;99.90;;;;;;5064833;28;20052;-66
2021/03/28 05:32:57;;;;;;;23.65;5.95;;;5.00;99.90;;;;;;5064656;28;20056;-67
2021/03/28 05:35:34;;;;;;;29.60;7.00;;;5.10;99.90;;;;;;5054564;28;20110;-67
2021/03/28 05:38:25;;;;;;;15.00;4.43;;;5.10;99.90;;;;;;5064333;28;20156;-67
2021/03/28 05:41:10;;;;;;;22.45;5.43;;;5.10;99.90;;;;;;5058072;28;20052;-67
2021/03/28 05:44:11;;;;;;;22.23;6.60;;;5.10;99.90;;;;;;5055702;28;20052;-67
2021/03/28 05:47:16;;;;;;;28.58;6.00;;;5.10;99.90;;;;;;5055833;28;20116;-67
2021/03/28 05:50:21;;;;;;;24.70;7.30;;;5.20;99.90;;;;;;5061732;28;20047;-67
2021/03/28 05:53:14;;;;;;;27.13;6.25;;;5.20;99.90;;;;;;5048016;28;20049;-66
2021/03/28 05:56:01;;;;;;;29.38;7.55;;;5.20;99.90;;;;;;5053013;28;20095;-67
2021/03/28 05:58:52;;;;;;;21.20;5.05;;;5.20;99.90;;;;;;5063809;28;20097;-67
2021/03/28 06:01:37;;;;;;;20.40;6.10;;;5.30;99.90;;;;;;5061819;28;20257;-67
2021/03/28 06:04:42;;;;;;;24.38;5.82;;;5.30;99.90;;;;;;5056110;28;20045;-66
2021/03/28 06:07:49;;;;;;;27.83;6.65;;;5.40;99.90;;;;;;5061225;28;20067;-67
2021/03/28 06:10:47;;;;;;;17.70;4.82;;;5.50;99.90;;;;;;5056906;28;20045;-67
2021/03/28 06:13:48;;;;;;;18.40;4.55;;;5.60;99.90;;;;;;5063389;28;20037;-67
2021/03/28 06:16:35;;;;;;;22.13;5.78;;;5.60;99.90;;;;;;5043864;28;20114;-67
2021/03/28 06:19:09;;;;;;;22.77;5.93;;;5.60;99.90;;;;;;5062094;28;20041;-67
2021/03/28 06:22:13;;;;;;;20.15;4.10;;;5.70;99.90;;;;;;5058676;28;20048;-67
2021/03/28 06:24:48;;;;;;;25.88;5.90;;;5.80;99.90;;;;;;5057495;28;20722;-67
2021/03/28 06:27:45;;;;;;;20.85;5.40;;;5.80;99.90;;;;;;5063723;28;20037;-66
2021/03/28 06:30:20;;;;;;;18.35;5.20;;;5.80;99.90;;;;;;5052157;28;20052;-67
2021/03/28 06:33:22;;;;;;;21.10;5.22;;;5.90;99.90;;;;;;5057335;28;20052;-67
2021/03/28 06:35:54;;;;;;;16.73;4.97;;;5.90;99.90;;;;;;5056594;28;20044;-67
2021/03/28 06:38:25;;;;;;;19.13;5.30;;;6.10;99.90;;;;;;5063059;28;20044;-67
2021/03/28 06:41:08;;;;;;;19.67;4.97;;;6.30;99.90;;;;;;5056564;28;20041;-67
2021/03/28 06:43:45;;;;;;;17.52;5.20;;;6.40;99.90;;;;;;5056896;28;20049;-67
2021/03/28 06:46:25;;;;;;;16.10;4.95;;;6.50;99.90;;;;;;5062819;28;20045;-67
2021/03/28 06:49:16;;;;;;;19.92;4.72;;;6.50;99.90;;;;;;5063524;28;20045;-67
2021/03/28 06:52:02;;;;;;;15.18;4.43;;;6.70;99.90;;;;;;5059450;28;20056;-67
2021/03/28 06:54:37;;;;;;;20.95;4.75;;;6.70;99.90;;;;;;5062642;28;20160;-67
2021/03/28 06:57:37;;;;;;;15.50;4.90;;;6.80;99.90;;;;;;5052520;28;20086;-67
2021/03/28 07:00:51;;;;;;;16.90;4.93;;;6.90;99.90;;;;;;5061615;28;20049;-68
2021/03/28 07:03:38;;;;;;;16.48;4.35;;;7.00;99.90;;;;;;5055230;28;20053;-67
2021/03/28 07:06:19;;;;;;;11.20;3.85;;;7.00;99.90;;;;;;5063301;28;20524;-67
2021/03/28 07:09:06;;;;;;;14.50;4.40;;;7.10;99.90;;;;;;5062524;28;20045;-67
2021/03/28 07:11:39;;;;;;;14.27;4.65;;;7.20;99.90;;;;;;5051386;28;20040;-67
2021/03/28 07:14:48;;;;;;;15.18;4.40;;;7.20;99.90;;;;;;5061497;28;20051;-68
2021/03/28 07:17:23;;;;;;;15.70;4.13;;;7.30;99.90;;;;;;4976816;28;20167;-68
2021/03/28 07:20:09;;;;;;;14.98;4.70;;;7.30;99.90;;;;;;4974837;28;20042;-68
2021/03/28 07:22:41;;;;;;;17.73;5.15;;;7.40;99.90;;;;;;4978373;28;20074;-68
2021/03/28 07:25:40;;;;;;;14.40;4.40;;;7.40;99.90;;;;;;4980414;28;20129;-67
2021/03/28 07:28:28;;;;;;;15.65;4.10;;;7.50;99.90;;;;;;4981405;28;20065;-69
2021/03/28 07:31:18;;;;;;;15.10;3.80;;;7.50;99.90;;;;;;4980629;28;20134;-66
2021/03/28 07:34:21;;;;;;;22.83;4.40;;;7.50;99.90;;;;;;4979811;28;20545;-67
2021/03/28 07:37:25;;;;;;;17.45;4.60;;;7.60;99.90;;;;;;4981113;28;20047;-67
2021/03/28 07:39:59;;;;;;;17.52;3.67;;;7.70;99.90;;;;;;4979686;28;20085;-67
2021/03/28 07:42:37;;;;;;;10.40;3.40;;;7.80;99.90;;;;;;4980499;28;20047;-67
2021/03/28 07:45:21;;;;;;;16.60;3.67;;;7.80;99.90;;;;;;4980760;28;20098;-67
2021/03/28 07:48:13;;;;;;;18.48;5.53;;;7.80;99.90;;;;;;4980962;28;20523;-67
2021/03/28 07:51:03;;;;;;;14.55;3.72;;;7.90;99.90;;;;;;4977544;28;20062;-67
2021/03/28 07:53:47;;;;;;;11.55;3.58;;;7.90;99.90;;;;;;5013862;28;20061;-67
2021/03/28 07:56:53;;;;;;;16.33;3.33;;;8.00;99.90;;;;;;5059357;28;20038;-69
2021/03/28 07:59:41;;;;;;;11.43;3.35;;;8.10;99.90;;;;;;5054414;28;20048;-67
2021/03/28 08:02:35;;;;;;;13.70;3.10;;;8.30;99.90;;;;;;5060079;28;20045;-67
2021/03/28 08:05:38;;;;;;;12.25;3.13;;;8.40;99.90;;;;;;5061638;28;20514;-67
2021/03/28 08:08:18;;;;;;;18.38;4.13;;;8.60;99.90;;;;;;5056577;28;20139;-67
2021/03/28 08:11:13;;;;;;;15.95;3.40;;;8.80;99.90;;;;;;5057623;28;20063;-67
2021/03/28 08:14:16;;;;;;;16.98;3.05;;;9.00;99.90;;;;;;5057200;28;20045;-67
2021/03/28 08:17:41;;;;;;;17.27;3.92;;;9.00;99.90;;;;;;5048970;28;20053;-67
2021/03/28 08:20:22;;;;;;;23.85;3.30;;;9.10;99.90;;;;;;5034612;28;20053;-67
2021/03/28 08:23:13;;;;;;;14.45;2.90;;;9.10;99.90;;;;;;5034868;28;20053;-67
2021/03/28 08:26:01;;;;;;;15.13;3.38;;;9.20;99.90;;;;;;5033597;28;20085;-68
2021/03/28 08:28:48;;;;;;;8.00;2.80;;;9.20;99.90;;;;;;5029917;28;20202;-69
2021/03/28 08:31:31;;;;;;;12.20;3.25;;;9.10;99.90;;;;;;5034951;28;20316;-67
2021/03/28 08:34:20;;;;;;;10.55;2.72;;;9.20;99.90;;;;;;5034039;28;20054;-67
2021/03/28 08:37:33;;;;;;;9.40;2.17;;;9.20;99.90;;;;;;5044784;28;20116;-68
2021/03/28 08:40:17;;;;;;;11.55;2.97;;;9.30;99.90;;;;;;5037608;28;20130;-68
2021/03/28 08:42:58;;;;;;;7.72;2.70;;;9.30;99.90;;;;;;5052172;28;20045;-68
2021/03/28 08:45:26;;;;;;;12.27;3.17;;;9.40;99.90;;;;;;5037479;28;20053;-67
2021/03/28 08:47:57;;;;;;;11.52;2.88;;;9.60;99.90;;;;;;5044957;28;20045;-68
2021/03/28 08:50:46;;;;;;;12.32;3.10;;;9.70;99.90;;;;;;5050398;28;20064;-68
2021/03/28 08:53:30;;;;;;;14.73;2.33;;;9.80;99.90;;;;;;5059081;28;20051;-68
2021/03/28 08:56:33;;;;;;;6.47;2.03;;;9.90;99.90;;;;;;5058294;28;20037;-68
2021/03/28 08:59:35;;;;;;;10.15;2.42;;;9.90;99.90;;;;;;5057214;28;20045;-68
2021/03/28 09:02:07;;;;;;;15.98;3.28;;;9.90;99.90;;;;;;5032668;28;20137;-67
2021/03/28 09:04:49;;;;;;;8.88;2.42;;;10.00;99.90;;;;;;5055893;28;20049;-69
2021/03/28 09:07:18;;;;;;;13.77;2.60;;;10.00;99.90;;;;;;5057370;28;20068;-70
2021/03/28 09:09:47;;;;;;;12.07;2.08;;;10.10;99.70;;;;;;5057687;28;20045;-69
2021/03/28 09:12:36;;;;;;;6.00;2.33;;;10.10;99.40;;;;;;5062598;28;20096;-69
2021/03/28 09:15:01;;;;;;;11.90;2.83;;;10.30;98.80;;;;;;5056589;28;20045;-70
2021/03/28 09:17:49;;;;;;;8.68;2.67;;;10.50;98.90;;;;;;5057280;28;20109;-70
2021/03/28 09:20:55;;;;;;;11.38;2.80;;;10.80;98.00;;;;;;5063281;28;20052;-70
2021/03/28 09:23:35;;;;;;;9.70;2.63;;;10.90;97.60;;;;;;5058408;28;20441;-70
2021/03/28 09:26:06;;;;;;;6.88;2.28;;;10.80;96.70;;;;;;5057183;28;20052;-70
2021/03/28 09:28:59;;;;;;;10.85;2.75;;;10.90;96.70;;;;;;5052349;28;20045;-69
2021/03/28 09:31:58;;;;;;;12.13;2.63;;;11.10;97.20;;;;;;5064309;28;20109;-69
2021/03/28 09:34:43;;;;;;;8.75;2.13;;;11.20;96.20;;;;;;5062557;28;20100;-70
2021/03/28 09:37:44;;;;;;;9.23;2.85;;;11.20;95.70;;;;;;5059273;28;20132;-69
2021/03/28 09:40:09;;;;;;;9.07;2.92;;;11.30;95.70;;;;;;5035482;28;20072;-69
2021/03/28 09:43:17;;;;;;;11.18;2.45;;;11.20;95.40;;;;;;5057170;28;20049;-69
2021/03/28 09:45:48;;;;;;;10.00;2.83;;;11.10;95.90;;;;;;5058233;28;20037;-69
2021/03/28 09:48:23;;;;;;;14.10;2.70;;;11.00;95.80;;;;;;5053586;28;20243;-70
2021/03/28 09:51:06;;;;;;;8.75;2.45;;;11.00;96.00;;;;;;5056435;28;20060;-69
2021/03/28 09:53:58;;;;;;;9.25;2.95;;;11.10;96.60;;;;;;5056260;28;20049;-69
2021/03/28 09:56:40;;;;;;;9.40;2.63;;;11.20;96.70;;;;;;5050414;28;20056;-69
2021/03/28 09:59:14;;;;;;;11.02;2.50;;;11.20;95.80;;;;;;5053605;28;20041;-69
2021/03/28 10:01:45;;;;;;;5.80;1.95;;;11.10;95.60;;;;;;5054405;28;20056;-69
2021/03/28 10:04:26;;;;;;;7.05;2.28;;;11.10;95.80;;;;;;5058168;28;20119;-69
2021/03/28 10:07:03;;;;;;;7.88;2.63;;;11.10;95.80;;;;;;5062112;28;20045;-69
2021/03/28 10:09:46;;;;;;;7.90;2.22;;;11.20;95.80;;;;;;5057608;28;20429;-69
2021/03/28 10:12:21;;;;;;;11.10;2.10;;;11.10;95.10;;;;;;5058177;28;20139;-69
2021/03/28 10:15:00;;;;;;;9.68;2.55;;;11.10;95.20;;;;;;5057791;28;20090;-69
2021/03/28 10:17:45;;;;;;;9.90;2.40;;;11.20;95.30;;;;;;5059562;28;20044;-71
2021/03/28 10:20:28;;;;;;;7.68;2.17;;;11.30;95.40;;;;;;5054675;28;20110;-73
2021/03/28 10:23:31;;;;;;;9.57;2.58;;;11.30;95.80;;;;;;5065128;28;20091;-72
2021/03/28 10:26:27;;;;;;;8.00;2.50;;;11.20;95.30;;;;;;5059627;28;20055;-71
2021/03/28 10:29:03;;;;;;;8.40;3.05;;;11.10;95.50;;;;;;5056336;28;20053;-71
2021/03/28 10:31:53;;;;;;;10.88;2.50;;;11.10;96.10;;;;;;5054449;28;20048;-71
2021/03/28 10:34:59;;;;;;;10.93;2.95;;;11.00;96.70;;;;;;5054709;28;20068;-69
2021/03/28 10:37:53;;;;;;;9.13;2.50;;;11.00;97.70;;;;;;5057102;28;20080;-68
2021/03/28 10:40:30;;;;;;;10.15;2.72;;;10.60;99.00;;;;;;5053122;28;20057;-68
2021/03/28 10:43:20;;;;;;;9.57;2.93;;;10.30;99.80;;;;;;5059873;28;20119;-69
2021/03/28 10:46:07;;;;;;;8.52;2.75;;;10.20;99.90;;;;;;5058258;28;20048;-68
2021/03/28 10:48:48;;;;;;;8.82;2.88;;;10.10;99.90;;;;;;5055257;28;20048;-69
2021/03/28 10:51:52;;;;;;;11.15;3.22;;;10.10;99.90;;;;;;5059937;28;20067;-69
2021/03/28 10:54:20;;;;;;;10.10;3.00;;;10.00;99.90;;;;;;5057982;28;20040;-63
2021/03/28 10:57:23;;;;;;;13.48;3.75;;;9.90;99.90;;;;;;5057936;28;20301;-63
2021/03/28 11:00:26;;;;;;;15.00;3.42;;;9.80;99.90;;;;;;5059128;28;20049;-63
2021/03/28 11:03:26;;;;;;;10.88;2.78;;;9.80;99.90;;;;;;5056710;28;20147;-64
2021/03/28 11:06:27;;;;;;;11.88;2.85;;;9.70;99.90;;;;;;5062427;28;20052;-65
2021/03/28 11:09:05;;;;;;;7.70;2.83;;;9.70;99.90;;;;;;5055248;28;20055;-63
2021/03/28 11:11:40;;;;;;;16.75;2.90;;;9.60;99.90;;;;;;5057224;28;20041;-62
2021/03/28 11:14:37;;;;;;;9.00;3.47;;;9.60;99.90;;;;;;5057582;28;20045;-66
2021/03/28 11:17:43;;;;;;;24.52;3.85;;;9.50;99.90;;;;;;5039488;28;20057;-72
2021/03/28 11:20:23;;;;;;;9.57;3.30;;;9.40;99.90;;;;;;5052067;28;20056;-73
2021/03/28 11:23:09;;;;;;;16.50;3.17;;;9.40;99.90;;;;;;5061747;28;20044;-73
2021/03/28 11:25:58;;;;;;;13.10;3.55;;;9.30;99.90;;;;;;5022036;28;20073;-73
2021/03/28 11:28:49;;;;;;;13.80;4.28;;;9.30;99.90;;;;;;5059670;28;20047;-73
2021/03/28 11:31:34;;;;;;;10.40;2.83;;;9.30;99.90;;;;;;5059806;28;20053;-72
2021/03/28 11:34:39;;;;;;;11.40;3.88;;;9.20;99.90;;;;;;5053589;28;20365;-72
2021/03/28 11:37:33;;;;;;;15.00;4.07;;;9.20;99.90;;;;;;5056030;28;20044;-73
2021/03/28 11:40:11;;;;;;;13.32;4.43;;;9.20;99.90;;;;;;5056846;28;20057;-73
2021/03/28 11:42:37;;;;;;;14.82;3.42;;;9.20;99.90;;;;;;5061468;28;20072;-72
2021/03/28 11:45:26;;;;;;;15.60;3.00;;;9.20;99.90;;;;;;5055377;28;20105;-71
2021/03/28 11:47:56;;;;;;;10.25;2.92;;;9.10;99.90;;;;;;5057952;28;20072;-71
2021/03/28 11:50:43;;;;;;;15.40;3.70;;;9.10;99.90;;;;;;5060643;28;20071;-72
2021/03/28 11:53:22;;;;;;;13.77;3.47;;;9.00;99.90;;;;;;5057379;28;20101;-71
2021/03/28 11:55:52;;;;;;;18.88;4.28;;;9.00;99.90;;;;;;5059041;28;20112;-71
2021/03/28 11:58:57;;;;;;;14.98;2.40;;;9.00;99.90;;;;;;5060183;28;20112;-71
2021/03/28 12:01:58;;;;;;;17.02;3.17;;;8.90;99.90;;;;;;5051343;28;20303;-71
2021/03/28 12:04:29;;;;;;;18.05;3.80;;;8.90;99.90;;;;;;5060276;28;20067;-70
2021/03/28 12:07:40;;;;;;;17.27;3.47;;;8.90;99.90;;;;;;5061437;28;20045;-71
2021/03/28 12:10:06;;;;;;;19.02;4.25;;;9.00;99.90;;;;;;5055195;28;20060;-72
2021/03/28 12:12:37;;;;;;;12.57;3.78;;;9.00;99.90;;;;;;5061379;28;20051;-70
2021/03/28 12:15:41;;;;;;;22.58;4.43;;;8.90;99.90;;;;;;5057164;28;20171;-72
2021/03/28 12:18:22;;;;;;;18.63;3.72;;;8.80;99.90;;;;;;5055216;28;20044;-71
2021/03/28 12:21:08;;;;;;;12.25;3.30;;;8.90;99.90;;;;;;5055692;28;20049;-70
2021/03/28 12:23:49;;;;;;;20.02;3.75;;;8.90;99.90;;;;;;5063133;28;20112;-69
2021/03/28 12:26:33;;;;;;;10.10;3.13;;;8.90;99.90;;;;;;5062863;28;20041;-75
2021/03/28 12:29:25;;;;;;;13.48;3.50;;;8.90;99.90;;;;;;5061427;28;20033;-69
2021/03/28 12:31:52;;;;;;;16.88;4.47;;;8.90;99.90;;;;;;5064034;28;20465;-70
2021/03/28 12:34:31;;;;;;;15.93;3.63;;;9.00;99.90;;;;;;5062825;28;20037;-71
2021/03/28 12:36:56;;;;;;;;;;;9.00;99.90;;;;;;5065501;28;20068;-69
2021/03/28 12:39:32;;;;;;;16.33;3.17;;;9.00;99.90;;;;;;5063445;28;19921;-69
2021/03/28 12:42:04;;;;;;;15.43;4.22;;;9.00;99.90;;;;;;5063473;28;20174;-74
2021/03/28 12:44:34;;;;;;;16.25;3.97;;;9.00;99.90;;;;;;5060552;28;20039;-73
2021/03/28 12:47:21;;;;;;;17.42;3.47;;;8.90;99.90;;;;;;5064498;28;20101;-74
2021/03/28 12:49:51;;;;;;;20.45;3.70;;;8.90;99.90;;;;;;5064273;28;20052;-75
2021/03/28 12:52:23;;;;;;;8.60;3.00;;;8.90;99.90;;;;;;5061071;28;20523;-75
2021/03/28 12:54:49;;;;;;;11.85;3.05;;;8.90;99.90;;;;;;5061203;28;20055;-74
2021/03/28 12:57:28;;;;;;;21.15;5.28;;;8.90;99.90;;;;;;5060846;28;20119;-73
2021/03/28 13:00:26;;;;;;;17.77;4.25;;;8.90;99.90;;;;;;5063175;28;20053;-73
2021/03/28 13:02:53;;;;;;;12.52;3.55;;;8.90;99.90;;;;;;5062969;28;20049;-73
2021/03/28 13:05:23;;;;;;;26.30;3.70;;;8.90;99.90;;;;;;5063618;28;20045;-75
2021/03/28 13:07:57;;;;;;;18.90;3.72;;;9.00;99.90;;;;;;5056786;28;20453;-71
2021/03/28 13:10:26;;;;;;;22.50;4.15;;;9.10;99.90;;;;;;5056184;28;20045;-69
2021/03/28 13:13:02;;;;;;;20.40;3.53;;;9.00;99.90;;;;;;5063389;28;20075;-69
2021/03/28 13:15:49;;;;;;;16.08;3.67;;;9.10;99.90;;;;;;5061935;28;20100;-71
2021/03/28 13:18:15;;;;;;;13.60;3.42;;;9.10;99.90;;;;;;5064190;28;20049;-69
2021/03/28 13:20:44;;;;;;;16.52;3.97;;;9.10;99.90;;;;;;5058688;28;20056;-71
2021/03/28 13:23:50;;;;;;;19.50;3.90;;;9.20;99.90;;;;;;5063062;28;20052;-70
2021/03/28 13:26:34;;;;;;;18.83;3.30;;;9.30;99.90;;;;;;5058912;28;20051;-70
2021/03/28 13:29:18;;;;;;;15.75;3.50;;;9.30;99.90;;;;;;5057694;28;20056;-73
2021/03/28 13:31:54;;;;;;;16.48;3.00;;;9.30;99.90;;;;;;5057184;28;20045;-65
2021/03/28 13:34:41;;;;;;;18.45;4.43;;;9.20;99.90;;;;;;5056460;28;20072;-66
2021/03/28 13:37:32;;;;;;;22.73;4.38;;;9.20;99.90;;;;;;5059265;28;20056;-65
2021/03/28 13:40:07;;;;;;;18.88;3.72;;;9.20;99.90;;;;;;5060833;28;20059;-65
2021/03/28 13:42:40;;;;;;;16.73;3.65;;;9.20;99.90;;;;;;5059380;28;20068;-65
2021/03/28 13:45:16;;;;;;;12.02;2.85;;;9.30;99.90;;;;;;5059825;28;20041;-64
2021/03/28 13:47:47;;;;;;;16.52;3.92;;;9.30;99.90;;;;;;5060714;28;20688;-66
2021/03/28 13:50:48;;;;;;;11.85;4.10;;;9.30;99.90;;;;;;5062577;28;20404;-66
2021/03/28 13:53:17;;;;;;;11.95;3.13;;;9.40;99.90;;;;;;4998283;28;20093;-65
2021/03/28 13:56:07;;;;;;;19.65;3.80;;;9.40;99.90;;;;;;5002865;28;20058;-67
2021/03/28 13:58:41;;;;;;;17.23;3.08;;;9.50;99.90;;;;;;5002552;28;20088;-65
2021/03/28 14:01:45;;;;;;;15.70;3.20;;;9.50;99.90;;;;;;5000419;28;20062;-65
2021/03/28 14:04:23;;;;;;;18.55;3.70;;;9.60;99.90;;;;;;4929961;29;20213;-65
2021/03/28 14:07:01;;;;;;;14.13;3.40;;;9.60;99.90;;;;;;4919210;29;20056;-66
2021/03/28 14:09:33;;;;;;;12.60;2.78;;;9.60;99.90;;;;;;4925410;29;20052;-65
2021/03/28 14:12:06;;;;;;;20.58;4.15;;;9.60;99.90;;;;;;4921552;29;20117;-65
2021/03/28 14:14:36;;;;;;;18.52;4.18;;;9.50;99.90;;;;;;4916752;29;20080;-65
2021/03/28 14:17:24;;;;;;;26.75;4.78;;;9.50;99.90;;;;;;4923907;29;20064;-65
2021/03/28 14:20:07;;;;;;;22.58;4.75;;;9.50;99.90;;;;;;4923077;29;20062;-65